sensor_id;sensor_type;location;lat;lon;timestamp;pressure;altitude;pressure_sealevel;temperature;humidity
22333;BME280;11334;36.986;-121.936;2023-04-30T00:02:02;101200.09;;;22.82;50.86
22333;BME280;11334;36.986;-121.936;2023-04-30T00:04:28;101204.03;;;22.86;50.61
22333;BME280;11334;36.986;-121.936;2023-04-30T00:06:54;101197.53;;;23.05;50.88
22333;BME280;11334;36.986;-121.936;2023-04-30T00:09:21;101190.41;;;23.28;49.88
22333;BME280;11334;36.986;-121.936;2023-04-30T00:11:47;101194.34;;;23.61;49.34
22333;BME280;11334;36.986;-121.936;2023-04-30T00:14:13;101202.88;;;24.05;47.86
22333;BME280;11334;36.986;-121.936;2023-04-30T00:16:39;101201.56;;;24.59;46.55
22333;BME280;11334;36.986;-121.936;2023-04-30T00:19:06;101198.34;;;25.07;45.16
22333;BME280;11334;36.986;-121.936;2023-04-30T00:21:33;101187.53;;;25.35;44.04
22333;BME280;11334;36.986;-121.936;2023-04-30T00:23:59;101195.66;;;25.73;43.26
22333;BME280;11334;36.986;-121.936;2023-04-30T00:26:26;101193.28;;;26.21;42.02
22333;BME280;11334;36.986;-121.936;2023-04-30T00:28:52;101189.59;;;26.59;41.49
22333;BME280;11334;36.986;-121.936;2023-04-30T00:31:18;101193.28;;;26.69;40.58
22333;BME280;11334;36.986;-121.936;2023-04-30T00:33:44;101199.09;;;27.15;39.79
22333;BME280;11334;36.986;-121.936;2023-04-30T00:36:11;101199.84;;;27.48;39.30
22333;BME280;11334;36.986;-121.936;2023-04-30T00:38:37;101184.53;;;27.68;38.64
22333;BME280;11334;36.986;-121.936;2023-04-30T00:41:04;101186.03;;;28.07;37.93
22333;BME280;11334;36.986;-121.936;2023-04-30T00:43:30;101183.91;;;28.14;37.71
22333;BME280;11334;36.986;-121.936;2023-04-30T00:45:59;101181.59;;;28.27;37.56
22333;BME280;11334;36.986;-121.936;2023-04-30T00:48:25;101182.34;;;28.54;36.88
22333;BME280;11334;36.986;-121.936;2023-04-30T00:50:52;101175.28;;;28.93;36.12
22333;BME280;11334;36.986;-121.936;2023-04-30T00:53:19;101173.25;;;29.25;35.57
22333;BME280;11334;36.986;-121.936;2023-04-30T00:55:45;101166.88;;;29.65;35.04
22333;BME280;11334;36.986;-121.936;2023-04-30T00:58:12;101167.44;;;30.07;34.48
22333;BME280;11334;36.986;-121.936;2023-04-30T01:00:40;101171.31;;;30.40;34.17
22333;BME280;11334;36.986;-121.936;2023-04-30T01:03:12;101176.47;;;30.66;33.48
22333;BME280;11334;36.986;-121.936;2023-04-30T01:05:39;101179.16;;;30.96;33.32
22333;BME280;11334;36.986;-121.936;2023-04-30T01:08:05;101170.66;;;31.02;33.04
22333;BME280;11334;36.986;-121.936;2023-04-30T01:10:40;101169.78;;;31.31;32.89
22333;BME280;11334;36.986;-121.936;2023-04-30T01:13:28;101165.81;;;31.52;32.67
22333;BME280;11334;36.986;-121.936;2023-04-30T01:19:08;101169.06;;;32.02;31.43
22333;BME280;11334;36.986;-121.936;2023-04-30T01:21:38;101160.22;;;32.10;31.64
22333;BME280;11334;36.986;-121.936;2023-04-30T01:24:30;101159.69;;;32.13;30.82
22333;BME280;11334;36.986;-121.936;2023-04-30T01:29:34;101158.97;;;31.92;31.08
22333;BME280;11334;36.986;-121.936;2023-04-30T01:32:01;101158.81;;;31.79;31.03
22333;BME280;11334;36.986;-121.936;2023-04-30T01:34:28;101160.03;;;31.58;31.86
22333;BME280;11334;36.986;-121.936;2023-04-30T01:40:27;101158.91;;;31.02;32.61
22333;BME280;11334;36.986;-121.936;2023-04-30T01:43:47;101152.09;;;30.85;32.46
22333;BME280;11334;36.986;-121.936;2023-04-30T01:51:27;101161.09;;;29.01;35.35
22333;BME280;11334;36.986;-121.936;2023-04-30T01:54:04;101169.00;;;28.21;36.07
22333;BME280;11334;36.986;-121.936;2023-04-30T01:56:36;101161.19;;;27.30;37.83
22333;BME280;11334;36.986;-121.936;2023-04-30T01:59:06;101173.47;;;26.74;38.63
22333;BME280;11334;36.986;-121.936;2023-04-30T02:01:33;101166.16;;;25.93;40.71
22333;BME280;11334;36.986;-121.936;2023-04-30T02:04:00;101159.59;;;25.23;41.64
22333;BME280;11334;36.986;-121.936;2023-04-30T02:06:28;101169.03;;;24.59;43.26
22333;BME280;11334;36.986;-121.936;2023-04-30T02:08:56;101168.91;;;23.91;45.16
22333;BME280;11334;36.986;-121.936;2023-04-30T02:11:28;101172.94;;;23.42;46.72
22333;BME280;11334;36.986;-121.936;2023-04-30T02:13:54;101176.06;;;23.10;47.32
22333;BME280;11334;36.986;-121.936;2023-04-30T02:16:20;101172.88;;;22.59;49.16
22333;BME280;11334;36.986;-121.936;2023-04-30T02:18:47;101165.28;;;22.26;50.24
22333;BME280;11334;36.986;-121.936;2023-04-30T02:21:13;101165.53;;;21.94;51.80
22333;BME280;11334;36.986;-121.936;2023-04-30T02:23:39;101162.50;;;21.54;53.76
22333;BME280;11334;36.986;-121.936;2023-04-30T02:26:06;101158.50;;;21.25;54.94
22333;BME280;11334;36.986;-121.936;2023-04-30T02:28:32;101154.03;;;21.00;55.51
22333;BME280;11334;36.986;-121.936;2023-04-30T02:30:58;101158.25;;;20.77;56.49
22333;BME280;11334;36.986;-121.936;2023-04-30T02:33:25;101162.88;;;20.51;58.19
22333;BME280;11334;36.986;-121.936;2023-04-30T02:35:51;101166.41;;;20.32;58.99
22333;BME280;11334;36.986;-121.936;2023-04-30T02:38:22;101155.25;;;20.10;59.95
22333;BME280;11334;36.986;-121.936;2023-04-30T02:40:48;101168.69;;;19.91;61.14
22333;BME280;11334;36.986;-121.936;2023-04-30T02:43:14;101167.38;;;19.74;61.74
22333;BME280;11334;36.986;-121.936;2023-04-30T02:45:40;101177.69;;;19.51;62.73
22333;BME280;11334;36.986;-121.936;2023-04-30T02:48:07;101171.41;;;19.31;63.68
22333;BME280;11334;36.986;-121.936;2023-04-30T02:50:33;101165.38;;;19.10;64.71
22333;BME280;11334;36.986;-121.936;2023-04-30T02:52:59;101168.44;;;19.07;65.64
22333;BME280;11334;36.986;-121.936;2023-04-30T02:55:25;101176.25;;;18.96;67.18
22333;BME280;11334;36.986;-121.936;2023-04-30T02:57:52;101179.09;;;18.88;66.65
22333;BME280;11334;36.986;-121.936;2023-04-30T03:00:18;101180.66;;;18.76;68.08
22333;BME280;11334;36.986;-121.936;2023-04-30T03:02:44;101183.91;;;18.66;68.72
22333;BME280;11334;36.986;-121.936;2023-04-30T03:05:11;101188.34;;;18.52;69.62
22333;BME280;11334;36.986;-121.936;2023-04-30T03:07:38;101193.44;;;18.41;70.24
22333;BME280;11334;36.986;-121.936;2023-04-30T03:10:04;101193.22;;;18.36;71.34
22333;BME280;11334;36.986;-121.936;2023-04-30T03:12:31;101203.06;;;18.29;71.53
22333;BME280;11334;36.986;-121.936;2023-04-30T03:14:57;101199.66;;;18.21;71.66
22333;BME280;11334;36.986;-121.936;2023-04-30T03:17:23;101160.16;;;17.88;71.89
22333;BME280;11334;36.986;-121.936;2023-04-30T03:19:50;101199.28;;;18.03;72.86
22333;BME280;11334;36.986;-121.936;2023-04-30T03:22:16;101211.34;;;17.93;73.99
22333;BME280;11334;36.986;-121.936;2023-04-30T03:24:48;101211.03;;;17.81;74.56
22333;BME280;11334;36.986;-121.936;2023-04-30T03:27:14;101209.91;;;17.70;75.15
22333;BME280;11334;36.986;-121.936;2023-04-30T03:29:41;101205.94;;;17.66;75.04
22333;BME280;11334;36.986;-121.936;2023-04-30T03:32:07;101211.03;;;17.61;75.22
22333;BME280;11334;36.986;-121.936;2023-04-30T03:34:34;101208.91;;;17.56;75.17
22333;BME280;11334;36.986;-121.936;2023-04-30T03:37:00;101217.72;;;17.50;75.44
22333;BME280;11334;36.986;-121.936;2023-04-30T03:39:27;101216.63;;;17.45;75.29
22333;BME280;11334;36.986;-121.936;2023-04-30T03:41:53;101207.69;;;17.38;75.47
22333;BME280;11334;36.986;-121.936;2023-04-30T03:44:19;101217.56;;;17.38;75.95
22333;BME280;11334;36.986;-121.936;2023-04-30T03:46:45;101223.75;;;17.38;76.20
22333;BME280;11334;36.986;-121.936;2023-04-30T03:49:11;101217.31;;;17.33;76.37
22333;BME280;11334;36.986;-121.936;2023-04-30T03:51:38;101228.50;;;17.22;76.94
22333;BME280;11334;36.986;-121.936;2023-04-30T03:54:06;101232.75;;;17.16;77.38
22333;BME280;11334;36.986;-121.936;2023-04-30T03:56:36;101231.28;;;17.14;77.29
22333;BME280;11334;36.986;-121.936;2023-04-30T03:59:02;101232.97;;;17.15;77.39
22333;BME280;11334;36.986;-121.936;2023-04-30T04:01:29;101232.81;;;17.08;77.99
22333;BME280;11334;36.986;-121.936;2023-04-30T04:03:55;101225.34;;;17.04;78.14
22333;BME280;11334;36.986;-121.936;2023-04-30T04:06:22;101241.41;;;17.04;78.67
22333;BME280;11334;36.986;-121.936;2023-04-30T04:08:48;101235.41;;;17.02;78.62
22333;BME280;11334;36.986;-121.936;2023-04-30T04:11:14;101241.13;;;16.99;78.68
22333;BME280;11334;36.986;-121.936;2023-04-30T04:13:40;101241.88;;;16.93;78.84
22333;BME280;11334;36.986;-121.936;2023-04-30T04:16:07;101241.25;;;16.91;79.37
22333;BME280;11334;36.986;-121.936;2023-04-30T04:18:34;101244.66;;;16.85;79.79
22333;BME280;11334;36.986;-121.936;2023-04-30T04:21:01;101241.72;;;16.80;79.78
22333;BME280;11334;36.986;-121.936;2023-04-30T04:23:27;101244.44;;;16.73;80.36
22333;BME280;11334;36.986;-121.936;2023-04-30T04:25:53;101250.72;;;16.65;80.60
22333;BME280;11334;36.986;-121.936;2023-04-30T04:28:19;101249.25;;;16.63;80.74
22333;BME280;11334;36.986;-121.936;2023-04-30T04:30:46;101247.75;;;16.60;81.11
22333;BME280;11334;36.986;-121.936;2023-04-30T04:33:14;101238.44;;;16.56;80.90
22333;BME280;11334;36.986;-121.936;2023-04-30T04:35:40;101243.25;;;16.46;81.70
22333;BME280;11334;36.986;-121.936;2023-04-30T04:38:07;101253.41;;;16.51;81.59
22333;BME280;11334;36.986;-121.936;2023-04-30T04:40:34;101237.41;;;16.43;81.90
22333;BME280;11334;36.986;-121.936;2023-04-30T04:43:00;101248.06;;;16.51;82.28
22333;BME280;11334;36.986;-121.936;2023-04-30T04:45:26;101248.09;;;16.43;82.50
22333;BME280;11334;36.986;-121.936;2023-04-30T04:47:52;101254.47;;;16.42;82.46
22333;BME280;11334;36.986;-121.936;2023-04-30T04:50:19;101254.66;;;16.41;82.38
22333;BME280;11334;36.986;-121.936;2023-04-30T04:52:45;101258.72;;;16.37;83.01
22333;BME280;11334;36.986;-121.936;2023-04-30T04:55:11;101256.19;;;16.35;82.84
22333;BME280;11334;36.986;-121.936;2023-04-30T04:57:38;101244.22;;;16.31;82.89
22333;BME280;11334;36.986;-121.936;2023-04-30T05:00:08;101245.59;;;16.27;83.16
22333;BME280;11334;36.986;-121.936;2023-04-30T05:02:35;101242.16;;;16.19;84.32
22333;BME280;11334;36.986;-121.936;2023-04-30T05:05:01;101238.66;;;16.18;84.16
22333;BME280;11334;36.986;-121.936;2023-04-30T05:07:27;101236.53;;;16.14;84.71
22333;BME280;11334;36.986;-121.936;2023-04-30T05:09:54;101235.00;;;16.12;84.73
22333;BME280;11334;36.986;-121.936;2023-04-30T05:12:21;101230.38;;;16.06;84.84
22333;BME280;11334;36.986;-121.936;2023-04-30T05:14:47;101237.09;;;16.02;85.59
22333;BME280;11334;36.986;-121.936;2023-04-30T05:17:15;101231.25;;;15.98;85.67
22333;BME280;11334;36.986;-121.936;2023-04-30T05:19:42;101237.34;;;15.92;86.55
22333;BME280;11334;36.986;-121.936;2023-04-30T05:22:08;101246.84;;;15.95;86.62
22333;BME280;11334;36.986;-121.936;2023-04-30T05:24:34;101249.50;;;15.95;86.33
22333;BME280;11334;36.986;-121.936;2023-04-30T05:27:00;101248.03;;;15.92;85.97
22333;BME280;11334;36.986;-121.936;2023-04-30T05:29:30;101256.22;;;15.91;86.44
22333;BME280;11334;36.986;-121.936;2023-04-30T05:31:56;101255.44;;;15.82;87.10
22333;BME280;11334;36.986;-121.936;2023-04-30T05:34:22;101256.09;;;15.84;86.85
22333;BME280;11334;36.986;-121.936;2023-04-30T05:36:48;101253.28;;;15.78;86.96
22333;BME280;11334;36.986;-121.936;2023-04-30T05:39:15;101255.97;;;15.78;87.39
22333;BME280;11334;36.986;-121.936;2023-04-30T05:41:41;101253.72;;;15.67;88.12
22333;BME280;11334;36.986;-121.936;2023-04-30T05:44:08;101257.56;;;15.65;88.73
22333;BME280;11334;36.986;-121.936;2023-04-30T05:46:34;101256.19;;;15.69;88.24
22333;BME280;11334;36.986;-121.936;2023-04-30T05:49:01;101245.03;;;15.65;88.25
22333;BME280;11334;36.986;-121.936;2023-04-30T05:51:27;101235.59;;;15.55;88.63
22333;BME280;11334;36.986;-121.936;2023-04-30T05:53:54;101246.75;;;15.58;89.35
22333;BME280;11334;36.986;-121.936;2023-04-30T05:56:22;101246.38;;;15.61;89.28
22333;BME280;11334;36.986;-121.936;2023-04-30T05:58:49;101252.91;;;15.59;89.28
22333;BME280;11334;36.986;-121.936;2023-04-30T06:01:19;101252.59;;;15.62;89.54
22333;BME280;11334;36.986;-121.936;2023-04-30T06:03:46;101244.59;;;15.54;89.53
22333;BME280;11334;36.986;-121.936;2023-04-30T06:06:12;101249.72;;;15.63;89.75
22333;BME280;11334;36.986;-121.936;2023-04-30T06:08:38;101231.53;;;15.59;89.57
22333;BME280;11334;36.986;-121.936;2023-04-30T06:11:12;101230.91;;;15.57;89.70
22333;BME280;11334;36.986;-121.936;2023-04-30T06:13:40;101232.09;;;15.54;90.23
22333;BME280;11334;36.986;-121.936;2023-04-30T06:16:06;101229.44;;;15.54;90.08
22333;BME280;11334;36.986;-121.936;2023-04-30T06:18:33;101229.91;;;15.58;89.88
22333;BME280;11334;36.986;-121.936;2023-04-30T06:20:59;101225.59;;;15.49;90.39
22333;BME280;11334;36.986;-121.936;2023-04-30T06:23:25;101230.78;;;15.50;89.98
22333;BME280;11334;36.986;-121.936;2023-04-30T06:25:51;101227.13;;;15.44;89.97
22333;BME280;11334;36.986;-121.936;2023-04-30T06:28:17;101212.19;;;15.35;91.05
22333;BME280;11334;36.986;-121.936;2023-04-30T06:30:44;101214.50;;;15.38;90.97
22333;BME280;11334;36.986;-121.936;2023-04-30T06:33:10;101208.97;;;15.39;90.92
22333;BME280;11334;36.986;-121.936;2023-04-30T06:35:36;101216.88;;;15.33;91.25
22333;BME280;11334;36.986;-121.936;2023-04-30T06:38:03;101209.22;;;15.30;91.80
22333;BME280;11334;36.986;-121.936;2023-04-30T06:40:29;101214.56;;;15.30;92.12
22333;BME280;11334;36.986;-121.936;2023-04-30T06:42:55;101214.06;;;15.26;92.16
22333;BME280;11334;36.986;-121.936;2023-04-30T06:45:21;101215.91;;;15.26;92.25
22333;BME280;11334;36.986;-121.936;2023-04-30T06:47:48;101217.38;;;15.28;92.21
22333;BME280;11334;36.986;-121.936;2023-04-30T06:50:14;101220.78;;;15.22;92.64
22333;BME280;11334;36.986;-121.936;2023-04-30T06:52:40;101215.44;;;15.22;93.02
22333;BME280;11334;36.986;-121.936;2023-04-30T06:55:07;101222.94;;;15.19;93.30
22333;BME280;11334;36.986;-121.936;2023-04-30T06:57:34;101223.31;;;15.08;93.79
22333;BME280;11334;36.986;-121.936;2023-04-30T07:00:04;101216.66;;;15.12;94.09
22333;BME280;11334;36.986;-121.936;2023-04-30T07:02:31;101217.91;;;15.24;93.30
22333;BME280;11334;36.986;-121.936;2023-04-30T07:04:57;101223.13;;;15.18;93.33
22333;BME280;11334;36.986;-121.936;2023-04-30T07:07:23;101221.81;;;15.14;93.55
22333;BME280;11334;36.986;-121.936;2023-04-30T07:09:50;101223.47;;;15.07;94.19
22333;BME280;11334;36.986;-121.936;2023-04-30T07:12:19;101221.63;;;15.15;94.62
22333;BME280;11334;36.986;-121.936;2023-04-30T07:14:45;101227.59;;;15.17;93.86
22333;BME280;11334;36.986;-121.936;2023-04-30T07:17:11;101215.16;;;15.10;94.31
22333;BME280;11334;36.986;-121.936;2023-04-30T07:19:37;101218.97;;;15.07;94.21
22333;BME280;11334;36.986;-121.936;2023-04-30T07:22:03;101211.66;;;15.01;94.54
22333;BME280;11334;36.986;-121.936;2023-04-30T07:24:30;101224.31;;;14.99;95.05
22333;BME280;11334;36.986;-121.936;2023-04-30T07:26:56;101217.69;;;14.95;94.93
22333;BME280;11334;36.986;-121.936;2023-04-30T07:29:27;101215.03;;;14.95;95.13
22333;BME280;11334;36.986;-121.936;2023-04-30T07:31:54;101219.34;;;14.96;95.13
22333;BME280;11334;36.986;-121.936;2023-04-30T07:34:21;101212.72;;;14.84;96.21
22333;BME280;11334;36.986;-121.936;2023-04-30T07:36:48;101222.19;;;14.95;96.32
22333;BME280;11334;36.986;-121.936;2023-04-30T07:39:14;101223.38;;;14.92;96.34
22333;BME280;11334;36.986;-121.936;2023-04-30T07:41:40;101222.19;;;14.95;96.10
22333;BME280;11334;36.986;-121.936;2023-04-30T07:44:06;101224.22;;;14.93;96.40
22333;BME280;11334;36.986;-121.936;2023-04-30T07:46:33;101216.72;;;14.88;96.35
22333;BME280;11334;36.986;-121.936;2023-04-30T07:48:59;101214.03;;;14.88;96.55
22333;BME280;11334;36.986;-121.936;2023-04-30T07:51:26;101214.88;;;14.89;96.69
22333;BME280;11334;36.986;-121.936;2023-04-30T07:53:52;101217.53;;;14.89;96.75
22333;BME280;11334;36.986;-121.936;2023-04-30T07:56:18;101202.91;;;14.85;96.89
22333;BME280;11334;36.986;-121.936;2023-04-30T07:58:45;101205.88;;;14.90;96.52
22333;BME280;11334;36.986;-121.936;2023-04-30T08:01:11;101211.22;;;14.90;96.34
22333;BME280;11334;36.986;-121.936;2023-04-30T08:03:37;101198.84;;;14.89;96.49
22333;BME280;11334;36.986;-121.936;2023-04-30T08:06:06;101192.84;;;14.87;95.79
22333;BME280;11334;36.986;-121.936;2023-04-30T08:08:32;101202.72;;;14.86;96.52
22333;BME280;11334;36.986;-121.936;2023-04-30T08:10:59;101195.38;;;14.88;96.60
22333;BME280;11334;36.986;-121.936;2023-04-30T08:13:25;101193.38;;;14.90;96.22
22333;BME280;11334;36.986;-121.936;2023-04-30T08:15:51;101187.66;;;14.93;96.08
22333;BME280;11334;36.986;-121.936;2023-04-30T08:18:18;101180.03;;;14.90;96.12
22333;BME280;11334;36.986;-121.936;2023-04-30T08:20:45;101179.81;;;14.92;96.29
22333;BME280;11334;36.986;-121.936;2023-04-30T08:23:11;101174.69;;;14.90;96.09
22333;BME280;11334;36.986;-121.936;2023-04-30T08:25:38;101171.66;;;14.93;95.91
22333;BME280;11334;36.986;-121.936;2023-04-30T08:28:05;101169.50;;;14.89;96.07
22333;BME280;11334;36.986;-121.936;2023-04-30T08:30:32;101160.63;;;14.96;96.18
22333;BME280;11334;36.986;-121.936;2023-04-30T08:32:58;101146.47;;;14.96;95.31
22333;BME280;11334;36.986;-121.936;2023-04-30T08:35:24;101155.34;;;14.88;95.76
22333;BME280;11334;36.986;-121.936;2023-04-30T08:37:50;101165.72;;;14.84;96.19
22333;BME280;11334;36.986;-121.936;2023-04-30T08:40:18;101162.69;;;14.86;96.24
22333;BME280;11334;36.986;-121.936;2023-04-30T08:42:50;101148.69;;;14.84;96.28
22333;BME280;11334;36.986;-121.936;2023-04-30T08:45:19;101159.34;;;14.84;96.18
22333;BME280;11334;36.986;-121.936;2023-04-30T08:47:45;101151.34;;;14.84;96.38
22333;BME280;11334;36.986;-121.936;2023-04-30T08:50:13;101143.34;;;14.84;96.25
22333;BME280;11334;36.986;-121.936;2023-04-30T08:52:40;101140.69;;;14.84;96.31
22333;BME280;11334;36.986;-121.936;2023-04-30T08:55:07;101141.03;;;14.82;95.92
22333;BME280;11334;36.986;-121.936;2023-04-30T08:57:35;101136.88;;;14.79;96.11
22333;BME280;11334;36.986;-121.936;2023-04-30T09:00:03;101135.38;;;14.77;96.48
22333;BME280;11334;36.986;-121.936;2023-04-30T09:02:32;101127.06;;;14.72;96.53
22333;BME280;11334;36.986;-121.936;2023-04-30T09:04:58;101126.41;;;14.70;96.85
22333;BME280;11334;36.986;-121.936;2023-04-30T09:07:26;101133.13;;;14.66;97.98
22333;BME280;11334;36.986;-121.936;2023-04-30T09:09:53;101129.28;;;14.68;98.04
22333;BME280;11334;36.986;-121.936;2023-04-30T09:12:23;101133.59;;;14.69;98.32
22333;BME280;11334;36.986;-121.936;2023-04-30T09:15:00;101136.75;;;14.65;99.12
22333;BME280;11334;36.986;-121.936;2023-04-30T09:17:29;101132.44;;;14.64;99.08
22333;BME280;11334;36.986;-121.936;2023-04-30T09:20:11;101131.09;;;14.68;99.29
22333;BME280;11334;36.986;-121.936;2023-04-30T09:22:39;101125.13;;;14.66;98.93
22333;BME280;11334;36.986;-121.936;2023-04-30T09:25:06;101124.28;;;14.65;99.19
22333;BME280;11334;36.986;-121.936;2023-04-30T09:27:33;101121.44;;;14.67;98.86
22333;BME280;11334;36.986;-121.936;2023-04-30T09:30:00;101112.75;;;14.65;98.97
22333;BME280;11334;36.986;-121.936;2023-04-30T09:32:26;101124.44;;;14.64;99.40
22333;BME280;11334;36.986;-121.936;2023-04-30T09:34:52;101114.78;;;14.63;98.99
22333;BME280;11334;36.986;-121.936;2023-04-30T09:37:18;101121.44;;;14.67;99.13
22333;BME280;11334;36.986;-121.936;2023-04-30T09:39:53;101116.41;;;14.72;99.02
22333;BME280;11334;36.986;-121.936;2023-04-30T09:42:20;101122.09;;;14.69;98.25
22333;BME280;11334;36.986;-121.936;2023-04-30T09:44:47;101120.25;;;14.69;98.47
22333;BME280;11334;36.986;-121.936;2023-04-30T09:47:15;101108.75;;;14.69;98.86
22333;BME280;11334;36.986;-121.936;2023-04-30T09:49:49;101114.25;;;14.67;98.89
22333;BME280;11334;36.986;-121.936;2023-04-30T09:52:19;101113.44;;;14.67;98.82
22333;BME280;11334;36.986;-121.936;2023-04-30T09:54:46;101107.13;;;14.60;98.77
22333;BME280;11334;36.986;-121.936;2023-04-30T09:57:14;101113.78;;;14.64;98.87
22333;BME280;11334;36.986;-121.936;2023-04-30T09:59:45;101111.47;;;14.61;99.19
22333;BME280;11334;36.986;-121.936;2023-04-30T10:02:14;101117.78;;;14.60;99.57
22333;BME280;11334;36.986;-121.936;2023-04-30T10:04:44;101117.47;;;14.55;100.00
22333;BME280;11334;36.986;-121.936;2023-04-30T10:07:19;101107.16;;;14.52;100.00
22333;BME280;11334;36.986;-121.936;2023-04-30T10:10:03;101116.28;;;14.57;100.00
22333;BME280;11334;36.986;-121.936;2023-04-30T10:15:27;101098.50;;;14.50;100.00
22333;BME280;11334;36.986;-121.936;2023-04-30T10:18:01;101104.69;;;14.51;100.00
22333;BME280;11334;36.986;-121.936;2023-04-30T10:20:31;101110.00;;;14.51;100.00
22333;BME280;11334;36.986;-121.936;2023-04-30T10:23:00;101109.47;;;14.55;100.00
22333;BME280;11334;36.986;-121.936;2023-04-30T10:25:27;101106.34;;;14.52;100.00
22333;BME280;11334;36.986;-121.936;2023-04-30T10:27:54;101113.66;;;14.50;100.00
22333;BME280;11334;36.986;-121.936;2023-04-30T10:30:21;101112.69;;;14.43;100.00
22333;BME280;11334;36.986;-121.936;2023-04-30T10:36:03;101116.38;;;14.42;100.00
22333;BME280;11334;36.986;-121.936;2023-04-30T10:38:31;101118.69;;;14.45;100.00
22333;BME280;11334;36.986;-121.936;2023-04-30T10:40:59;101106.69;;;14.49;100.00
22333;BME280;11334;36.986;-121.936;2023-04-30T10:43:31;101110.03;;;14.43;100.00
22333;BME280;11334;36.986;-121.936;2023-04-30T10:46:00;101107.19;;;14.44;100.00
22333;BME280;11334;36.986;-121.936;2023-04-30T10:48:27;101113.69;;;14.42;100.00
22333;BME280;11334;36.986;-121.936;2023-04-30T10:50:57;101112.22;;;14.39;100.00
22333;BME280;11334;36.986;-121.936;2023-04-30T10:53:24;101103.06;;;14.34;100.00
22333;BME280;11334;36.986;-121.936;2023-04-30T10:56:01;101117.19;;;14.42;100.00
22333;BME280;11334;36.986;-121.936;2023-04-30T10:58:35;101114.41;;;14.36;100.00
22333;BME280;11334;36.986;-121.936;2023-04-30T11:01:08;101099.75;;;14.32;100.00
22333;BME280;11334;36.986;-121.936;2023-04-30T11:03:38;101106.88;;;14.39;100.00
22333;BME280;11334;36.986;-121.936;2023-04-30T11:06:15;101106.53;;;14.42;99.09
22333;BME280;11334;36.986;-121.936;2023-04-30T11:08:45;101096.25;;;14.31;98.87
22333;BME280;11334;36.986;-121.936;2023-04-30T11:11:19;101099.75;;;14.32;98.74
22333;BME280;11334;36.986;-121.936;2023-04-30T11:13:58;101107.41;;;14.27;99.60
22333;BME280;11334;36.986;-121.936;2023-04-30T11:16:33;101106.59;;;14.26;99.75
22333;BME280;11334;36.986;-121.936;2023-04-30T11:19:12;101105.25;;;14.22;99.90
22333;BME280;11334;36.986;-121.936;2023-04-30T11:27:36;101105.97;;;14.17;100.00
22333;BME280;11334;36.986;-121.936;2023-04-30T11:30:09;101107.25;;;14.21;100.00
22333;BME280;11334;36.986;-121.936;2023-04-30T11:32:37;101116.09;;;14.21;100.00
22333;BME280;11334;36.986;-121.936;2023-04-30T11:35:04;101100.75;;;14.23;100.00
22333;BME280;11334;36.986;-121.936;2023-04-30T11:37:34;101093.63;;;14.23;100.00
22333;BME280;11334;36.986;-121.936;2023-04-30T11:40:05;101092.78;;;14.15;100.00
22333;BME280;11334;36.986;-121.936;2023-04-30T11:42:33;101091.13;;;14.14;100.00
22333;BME280;11334;36.986;-121.936;2023-04-30T11:45:17;101083.31;;;14.05;100.00
22333;BME280;11334;36.986;-121.936;2023-04-30T11:47:51;101097.78;;;14.18;100.00
22333;BME280;11334;36.986;-121.936;2023-04-30T11:50:25;101092.28;;;14.20;100.00
22333;BME280;11334;36.986;-121.936;2023-04-30T11:52:55;101081.97;;;14.17;100.00
22333;BME280;11334;36.986;-121.936;2023-04-30T11:55:25;101083.47;;;14.19;100.00
22333;BME280;11334;36.986;-121.936;2023-04-30T11:57:54;101087.31;;;14.17;100.00
22333;BME280;11334;36.986;-121.936;2023-04-30T12:00:26;101083.50;;;14.11;100.00
22333;BME280;11334;36.986;-121.936;2023-04-30T12:02:56;101090.63;;;14.11;100.00
22333;BME280;11334;36.986;-121.936;2023-04-30T12:05:23;101092.47;;;14.10;100.00
22333;BME280;11334;36.986;-121.936;2023-04-30T12:08:00;101095.63;;;14.06;100.00
22333;BME280;11334;36.986;-121.936;2023-04-30T12:10:34;101092.66;;;14.09;100.00
22333;BME280;11334;36.986;-121.936;2023-04-30T12:13:01;101084.97;;;14.06;100.00
22333;BME280;11334;36.986;-121.936;2023-04-30T12:15:28;101076.00;;;14.07;100.00
22333;BME280;11334;36.986;-121.936;2023-04-30T12:17:58;101062.84;;;14.05;100.00
22333;BME280;11334;36.986;-121.936;2023-04-30T12:20:26;101066.00;;;14.01;100.00
22333;BME280;11334;36.986;-121.936;2023-04-30T12:22:54;101070.47;;;14.08;100.00
22333;BME280;11334;36.986;-121.936;2023-04-30T12:25:21;101070.16;;;14.03;100.00
22333;BME280;11334;36.986;-121.936;2023-04-30T12:27:50;101072.84;;;14.03;100.00
22333;BME280;11334;36.986;-121.936;2023-04-30T12:30:21;101074.31;;;14.06;100.00
22333;BME280;11334;36.986;-121.936;2023-04-30T12:32:50;101073.34;;;14.07;100.00
22333;BME280;11334;36.986;-121.936;2023-04-30T12:35:19;101066.53;;;14.04;100.00
22333;BME280;11334;36.986;-121.936;2023-04-30T12:37:47;101067.00;;;14.08;100.00
22333;BME280;11334;36.986;-121.936;2023-04-30T12:40:18;101076.66;;;14.09;100.00
22333;BME280;11334;36.986;-121.936;2023-04-30T12:42:45;101064.84;;;14.03;100.00
22333;BME280;11334;36.986;-121.936;2023-04-30T12:45:42;101063.34;;;14.09;100.00
22333;BME280;11334;36.986;-121.936;2023-04-30T12:48:09;101057.34;;;14.07;100.00
22333;BME280;11334;36.986;-121.936;2023-04-30T12:50:35;101064.34;;;14.08;100.00